Superferry II — SWKV — position and weather

sailwx.info

Track history (hours):
 
Tides and Currents Weather Stations Pressure Air Temp Water Temp Dewpoint Dewpoint Depression Visibility Wind Speed Wind Dir Waves Ship Positions

Superferry II

Last reported at 2014-Aug-27 12:25 UTC. Time now 2014-Aug-27 15:09 UTC.
Position N 37°39' E 024°59'.

Length 122 m; draft 4.7 m.

Type: Passenger vessel. MMSI: 237001000.

Date/timePositionNaut miles runAvg speedWind from/ knotsBaromVisibWave heightAir tempDewpointWater temp
2014-Aug-27 12:25N 37°39' E 024°59'1112.2
2014-Aug-27 11:32N 37°32' E 025°09'9 9.0
2014-Aug-27 10:31N 37°28' E 025°19'4 3.7
2014-Aug-27 09:26N 37°29' E 025°15'1112.1
2014-Aug-27 08:32N 37°35' E 025°03'5115.0
2014-Aug-27 05:08N 37°60' E 024°07'7 0.5
2014-Aug-26 15:31N 37°58' E 024°15'3912.6
2014-Aug-26 12:26N 37°38' E 024°58'1112.2
2014-Aug-26 11:33N 37°32' E 025°09'9 9.1
2014-Aug-26 10:33N 37°28' E 025°19'0 0.1
2014-Aug-26 09:33N 37°28' E 025°19'1212.3
2014-Aug-26 08:33N 37°34' E 025°05'5415.9
2014-Aug-26 05:10N 38°00' E 024°06'2 0.4
2014-Aug-25 22:04N 38°01' E 024°03'1017.8
2014-Aug-25 21:29N 37°58' E 024°16'8 1.9
2014-Aug-25 17:23N 37°60' E 024°06'3 2.5
2014-Aug-25 16:19N 38°01' E 024°03'1418.0
2014-Aug-25 15:33N 37°57' E 024°20'3411.2
2014-Aug-25 12:32N 37°40' E 024°57'1312.9
2014-Aug-25 11:33N 37°32' E 025°09'9 9.1
2014-Aug-25 10:33N 37°28' E 025°19'2 2.3
2014-Aug-25 09:33N 37°29' E 025°17'1211.8
2014-Aug-25 08:34N 37°35' E 025°04'53 4.8
2014-Aug-24 21:33N 38°00' E 024°05'2318.2
2014-Aug-24 20:19N 37°54' E 024°33'14 5.0
2014-Aug-24 17:25N 37°58' E 024°15'2 1.0
2014-Aug-24 15:33N 37°58' E 024°13'1918.4
2014-Aug-24 14:30N 37°53' E 024°37'2210.6
2014-Aug-24 12:24N 37°39' E 024°58'1113.1
2014-Aug-24 11:33N 37°32' E 025°09'9 9.2
2014-Aug-24 10:33N 37°28' E 025°19'1 1.0
2014-Aug-24 09:33N 37°28' E 025°18'1313.0
2014-Aug-24 08:33N 37°35' E 025°04'4915.2
2014-Aug-24 05:21N 37°59' E 024°10'7 0.9
2014-Aug-23 21:25N 38°01' E 024°02'1617.6
2014-Aug-23 20:32N 37°56' E 024°21'8 0.3
2014-Aug-22 20:33N 37°59' E 024°12'1918.6
2014-Aug-22 19:33N 37°54' E 024°34'19 4.8
2014-Aug-22 15:33N 37°59' E 024°11'1918.6
2014-Aug-22 14:33N 37°54' E 024°34'2311.1
2014-Aug-22 12:27N 37°40' E 024°57'1213.7
2014-Aug-22 11:33N 37°32' E 025°09'9 9.2
2014-Aug-22 10:33N 37°28' E 025°19'2 1.8
2014-Aug-22 09:33N 37°28' E 025°17'1211.7
2014-Aug-22 08:33N 37°34' E 025°04'4615.2
2014-Aug-22 05:31N 37°58' E 024°15'1 0.1
2014-Aug-21 20:32N 37°58' E 024°15'1818.3
2014-Aug-21 19:33N 37°53' E 024°37'18 8.4
2014-Aug-21 17:28N 37°58' E 024°16'2 1.3
2014-Aug-21 15:33N 37°59' E 024°13'3912.8
2014-Aug-21 12:32N 37°41' E 024°56'1313.7
2014-Aug-21 11:33N 37°32' E 025°09'9 9.1
2014-Aug-21 10:33N 37°28' E 025°19'5 4.8
2014-Aug-21 09:28N 37°30' E 025°13'1010.8
2014-Aug-21 08:33N 37°35' E 025°03'5015.2
2014-Aug-21 05:18N 37°60' E 024°08'3 0.2
2014-Aug-20 15:33N 37°59' E 024°12'4213.0
2014-Aug-20 12:20N 37°39' E 024°58'1113.9
2014-Aug-20 11:33N 37°32' E 025°09'9 9.2
2014-Aug-20 10:33N 37°28' E 025°19'2 1.8
2014-Aug-20 09:33N 37°28' E 025°17'1312.8
2014-Aug-20 08:34N 37°35' E 025°04'6 0.3
2014-Aug-19 12:26N 37°39' E 024°58'1112.5
2014-Aug-19 11:32N 37°32' E 025°09'9 9.3
2014-Aug-19 10:33N 37°28' E 025°19'5 5.2
2014-Aug-19 09:33N 37°30' E 025°13'1211.8
2014-Aug-19 08:33N 37°37' E 025°01'5015.1
2014-Aug-19 05:17N 38°00' E 024°06'47 2.8
2014-Aug-18 12:30N 37°39' E 024°59'1111.3
2014-Aug-18 11:33N 37°32' E 025°09'8 8.2
2014-Aug-18 10:33N 37°28' E 025°18'1111.2
2014-Aug-18 09:33N 37°33' E 025°06'  
Track history (hours):
 
Tides and Currents Weather Stations Pressure Air Temp Water Temp Dewpoint Dewpoint Depression Visibility Wind Speed Wind Dir Waves Ship Positions

Superferry II

Last reported at 2014-Aug-27 12:25 UTC. Time now 2014-Aug-27 15:09 UTC.
Position N 37°39' E 024°59'.

Length 122 m; draft 4.7 m.

Type: Passenger vessel. MMSI: 237001000.

Date/timePositionNaut miles runAvg speedWind from/ knotsBaromVisibWave heightAir tempDewpointWater temp
2014-Aug-27 12:25N 37°39' E 024°59'1112.2
2014-Aug-27 11:32N 37°32' E 025°09'9 9.0
2014-Aug-27 10:31N 37°28' E 025°19'4 3.7
2014-Aug-27 09:26N 37°29' E 025°15'1112.1
2014-Aug-27 08:32N 37°35' E 025°03'5115.0
2014-Aug-27 05:08N 37°60' E 024°07'7 0.5
2014-Aug-26 15:31N 37°58' E 024°15'3912.6
2014-Aug-26 12:26N 37°38' E 024°58'1112.2
2014-Aug-26 11:33N 37°32' E 025°09'9 9.1
2014-Aug-26 10:33N 37°28' E 025°19'0 0.1
2014-Aug-26 09:33N 37°28' E 025°19'1212.3
2014-Aug-26 08:33N 37°34' E 025°05'5415.9
2014-Aug-26 05:10N 38°00' E 024°06'2 0.4
2014-Aug-25 22:04N 38°01' E 024°03'1017.8
2014-Aug-25 21:29N 37°58' E 024°16'8 1.9
2014-Aug-25 17:23N 37°60' E 024°06'3 2.5
2014-Aug-25 16:19N 38°01' E 024°03'1418.0
2014-Aug-25 15:33N 37°57' E 024°20'3411.2
2014-Aug-25 12:32N 37°40' E 024°57'1312.9
2014-Aug-25 11:33N 37°32' E 025°09'9 9.1
2014-Aug-25 10:33N 37°28' E 025°19'2 2.3
2014-Aug-25 09:33N 37°29' E 025°17'1211.8
2014-Aug-25 08:34N 37°35' E 025°04'53 4.8
2014-Aug-24 21:33N 38°00' E 024°05'2318.2
2014-Aug-24 20:19N 37°54' E 024°33'14 5.0
2014-Aug-24 17:25N 37°58' E 024°15'2 1.0
2014-Aug-24 15:33N 37°58' E 024°13'1918.4
2014-Aug-24 14:30N 37°53' E 024°37'2210.6
2014-Aug-24 12:24N 37°39' E 024°58'1113.1
2014-Aug-24 11:33N 37°32' E 025°09'9 9.2
2014-Aug-24 10:33N 37°28' E 025°19'1 1.0
2014-Aug-24 09:33N 37°28' E 025°18'1313.0
2014-Aug-24 08:33N 37°35' E 025°04'4915.2
2014-Aug-24 05:21N 37°59' E 024°10'7 0.9
2014-Aug-23 21:25N 38°01' E 024°02'1617.6
2014-Aug-23 20:32N 37°56' E 024°21'8 0.3
2014-Aug-22 20:33N 37°59' E 024°12'1918.6
2014-Aug-22 19:33N 37°54' E 024°34'19 4.8
2014-Aug-22 15:33N 37°59' E 024°11'1918.6
2014-Aug-22 14:33N 37°54' E 024°34'2311.1
2014-Aug-22 12:27N 37°40' E 024°57'1213.7
2014-Aug-22 11:33N 37°32' E 025°09'9 9.2
2014-Aug-22 10:33N 37°28' E 025°19'2 1.8
2014-Aug-22 09:33N 37°28' E 025°17'1211.7
2014-Aug-22 08:33N 37°34' E 025°04'4615.2
2014-Aug-22 05:31N 37°58' E 024°15'1 0.1
2014-Aug-21 20:32N 37°58' E 024°15'1818.3
2014-Aug-21 19:33N 37°53' E 024°37'18 8.4
2014-Aug-21 17:28N 37°58' E 024°16'2 1.3
2014-Aug-21 15:33N 37°59' E 024°13'3912.8
2014-Aug-21 12:32N 37°41' E 024°56'1313.7
2014-Aug-21 11:33N 37°32' E 025°09'9 9.1
2014-Aug-21 10:33N 37°28' E 025°19'5 4.8
2014-Aug-21 09:28N 37°30' E 025°13'1010.8
2014-Aug-21 08:33N 37°35' E 025°03'5015.2
2014-Aug-21 05:18N 37°60' E 024°08'3 0.2
2014-Aug-20 15:33N 37°59' E 024°12'4213.0
2014-Aug-20 12:20N 37°39' E 024°58'1113.9
2014-Aug-20 11:33N 37°32' E 025°09'9 9.2
2014-Aug-20 10:33N 37°28' E 025°19'2 1.8
2014-Aug-20 09:33N 37°28' E 025°17'1312.8
2014-Aug-20 08:34N 37°35' E 025°04'6 0.3
2014-Aug-19 12:26N 37°39' E 024°58'1112.5
2014-Aug-19 11:32N 37°32' E 025°09'9 9.3
2014-Aug-19 10:33N 37°28' E 025°19'5 5.2
2014-Aug-19 09:33N 37°30' E 025°13'1211.8
2014-Aug-19 08:33N 37°37' E 025°01'5015.1
2014-Aug-19 05:17N 38°00' E 024°06'47 2.8
2014-Aug-18 12:30N 37°39' E 024°59'1111.3
2014-Aug-18 11:33N 37°32' E 025°09'8 8.2
2014-Aug-18 10:33N 37°28' E 025°18'1111.2
2014-Aug-18 09:33N 37°33' E 025°06'  

Dump ship's entire track history